createdAt,value
2023-07-11T00:01:16.795Z,59.45
2023-07-11T00:03:44.453Z,58.49
2023-07-11T00:06:18.972Z,59.06
2023-07-11T00:08:46.280Z,57.72
2023-07-11T00:11:19.990Z,59.52
2023-07-11T00:13:51.296Z,60.24
2023-07-11T00:16:20.932Z,60.97
2023-07-11T00:18:48.324Z,62.18
2023-07-11T00:21:15.872Z,62.64
2023-07-11T00:23:43.205Z,65.56
2023-07-11T00:26:10.951Z,69.63
2023-07-11T00:28:38.058Z,70.52
2023-07-11T00:31:05.352Z,70.37
2023-07-11T00:33:32.706Z,71.75
2023-07-11T00:35:59.977Z,73.75
2023-07-11T00:38:27.255Z,70.12
2023-07-11T00:40:54.511Z,63.83
2023-07-11T00:43:23.161Z,65.19
2023-07-11T00:46:17.810Z,70.91
2023-07-11T00:48:53.148Z,74.20
2023-07-11T00:51:31.953Z,72.18
2023-07-11T00:54:01.228Z,71.48
2023-07-11T00:56:33.457Z,71.01
2023-07-11T00:59:01.661Z,71.96
2023-07-11T01:01:29.089Z,73.20
2023-07-11T01:03:56.837Z,74.20
2023-07-11T01:06:29.155Z,75.61
2023-07-11T01:08:58.438Z,76.89
2023-07-11T01:11:30.221Z,75.84
2023-07-11T01:13:58.387Z,74.63
2023-07-11T01:16:25.863Z,74.62
2023-07-11T01:18:53.402Z,75.41
2023-07-11T01:21:22.797Z,76.07
2023-07-11T01:23:50.290Z,78.29
2023-07-11T01:26:17.600Z,79.55
2023-07-11T01:28:44.838Z,78.96
2023-07-11T01:31:12.081Z,77.83
2023-07-11T01:33:39.399Z,78.78
2023-07-11T01:36:07.299Z,78.71
2023-07-11T01:38:36.608Z,78.57
2023-07-11T01:41:03.909Z,79.05
2023-07-11T01:43:31.450Z,80.13
2023-07-11T01:45:58.732Z,80.14
2023-07-11T01:48:25.913Z,80.99
2023-07-11T01:50:53.496Z,81.12
2023-07-11T01:53:20.569Z,78.90
2023-07-11T01:56:06.315Z,79.27
2023-07-11T01:58:34.443Z,79.31
2023-07-11T02:01:02.040Z,80.05
2023-07-11T02:03:30.103Z,79.52
2023-07-11T02:05:57.653Z,79.78
2023-07-11T02:08:24.764Z,79.99
2023-07-11T02:10:52.175Z,79.67
2023-07-11T02:13:19.967Z,78.56
2023-07-11T02:15:47.236Z,78.45
2023-07-11T02:18:14.585Z,79.39
2023-07-11T02:20:45.052Z,78.88
2023-07-11T02:23:17.108Z,79.17
2023-07-11T02:25:44.558Z,78.08
2023-07-11T02:28:11.827Z,78.15
2023-07-11T02:30:39.783Z,77.50
2023-07-11T02:33:07.044Z,76.17
2023-07-11T02:35:34.342Z,76.45
2023-07-11T02:38:01.826Z,77.04
2023-07-11T02:40:29.268Z,77.33
2023-07-11T02:42:56.454Z,78.29
2023-07-11T02:45:23.898Z,77.09
2023-07-11T02:47:51.223Z,78.23
2023-07-11T02:50:18.462Z,77.63
2023-07-11T02:52:45.646Z,78.19
2023-07-11T02:55:12.686Z,79.86
2023-07-11T02:57:41.808Z,80.06
2023-07-11T03:00:11.288Z,80.62
2023-07-11T03:02:38.731Z,79.98
2023-07-11T03:05:09.149Z,80.56
2023-07-11T03:07:37.133Z,80.28
2023-07-11T03:10:04.885Z,80.31
2023-07-11T03:12:32.192Z,80.79
2023-07-11T03:15:00.679Z,80.76
2023-07-11T03:17:30.100Z,80.41
2023-07-11T03:19:57.298Z,79.47
2023-07-11T03:22:24.538Z,81.06
2023-07-11T03:24:51.744Z,79.69
2023-07-11T03:27:18.930Z,79.56
2023-07-11T03:29:46.395Z,80.10
2023-07-11T03:32:13.758Z,80.94
2023-07-11T03:34:53.154Z,81.05
2023-07-11T03:37:21.280Z,81.71
2023-07-11T03:39:48.523Z,80.17
2023-07-11T03:42:15.782Z,79.46
2023-07-11T03:44:46.723Z,78.86
2023-07-11T03:47:14.084Z,79.01
2023-07-11T03:49:41.582Z,78.50
2023-07-11T03:52:08.829Z,78.15
2023-07-11T03:54:36.231Z,77.77
2023-07-11T03:57:03.585Z,77.58
2023-07-11T03:59:32.285Z,77.39
2023-07-11T04:01:59.423Z,77.92
2023-07-11T04:04:26.806Z,78.50
2023-07-11T04:06:53.986Z,78.34
2023-07-11T04:09:21.194Z,79.21
2023-07-11T04:11:48.496Z,79.74
2023-07-11T04:14:15.673Z,79.25
2023-07-11T04:16:42.937Z,79.15
2023-07-11T04:19:10.147Z,79.38
2023-07-11T04:21:37.668Z,80.40
2023-07-11T04:24:05.476Z,79.74
2023-07-11T04:26:32.677Z,80.65
2023-07-11T04:28:59.821Z,80.80
2023-07-11T04:31:30.060Z,80.63
2023-07-11T04:33:57.400Z,80.83
2023-07-11T04:36:24.501Z,79.73
2023-07-11T04:38:53.922Z,80.38
2023-07-11T04:41:21.377Z,80.93
2023-07-11T04:43:49.228Z,81.33
2023-07-11T04:46:16.433Z,81.05
2023-07-11T04:48:47.127Z,81.11
2023-07-11T04:51:14.786Z,80.32
2023-07-11T04:53:42.075Z,79.40
2023-07-11T04:56:11.555Z,78.78
2023-07-11T04:58:39.490Z,77.99
2023-07-11T05:01:13.491Z,77.46
2023-07-11T05:03:41.767Z,77.49
2023-07-11T05:06:10.465Z,77.38
2023-07-11T05:08:37.875Z,77.41
2023-07-11T05:11:12.407Z,76.90
2023-07-11T05:13:40.488Z,77.11
2023-07-11T05:16:14.135Z,76.61
2023-07-11T05:18:45.188Z,73.63
2023-07-11T05:21:16.676Z,73.07
2023-07-11T05:23:44.758Z,69.24
2023-07-11T05:26:12.590Z,69.87
2023-07-11T05:28:39.973Z,69.33
2023-07-11T05:31:08.753Z,70.68
2023-07-11T05:33:36.080Z,72.02
2023-07-11T05:36:26.429Z,70.90
2023-07-11T05:38:53.970Z,72.73
2023-07-11T05:41:21.444Z,72.63
2023-07-11T05:43:48.980Z,74.13
2023-07-11T05:46:16.652Z,74.03
2023-07-11T05:48:43.861Z,72.46
2023-07-11T05:51:14.426Z,74.02
2023-07-11T05:53:42.251Z,73.46
2023-07-11T05:56:10.172Z,74.35
2023-07-11T05:58:40.626Z,73.92
2023-07-11T06:01:08.396Z,72.37
2023-07-11T06:03:35.619Z,72.53
2023-07-11T06:06:05.611Z,73.04
2023-07-11T06:08:33.716Z,72.10
2023-07-11T06:11:04.890Z,68.70
2023-07-11T06:13:35.315Z,65.37
2023-07-11T06:16:14.343Z,65.35
2023-07-11T06:18:41.989Z,66.38
2023-07-11T06:21:11.902Z,66.49
2023-07-11T06:23:39.360Z,67.07
2023-07-11T06:26:08.884Z,67.90
2023-07-11T06:28:38.488Z,67.76
2023-07-11T06:31:08.228Z,67.94
2023-07-11T06:33:36.206Z,69.41
2023-07-11T06:36:06.556Z,69.50
2023-07-11T06:38:33.762Z,69.27
2023-07-11T06:41:01.367Z,69.40
2023-07-11T06:43:30.003Z,69.57
2023-07-11T06:46:00.777Z,69.81
2023-07-11T06:48:31.599Z,71.50
2023-07-11T06:51:02.197Z,70.37
2023-07-11T06:53:33.431Z,70.72
2023-07-11T06:56:01.440Z,70.09
2023-07-11T07:01:16.178Z,70.49
2023-07-11T07:03:53.708Z,70.80
2023-07-11T07:06:21.056Z,69.50
2023-07-11T07:08:48.371Z,69.32
2023-07-11T07:11:18.262Z,69.59
2023-07-11T07:13:52.255Z,71.00
2023-07-11T07:16:30.107Z,71.02
2023-07-11T07:18:57.528Z,70.29
2023-07-11T07:21:24.707Z,70.80
2023-07-11T07:23:51.744Z,68.53
2023-07-11T07:26:18.773Z,67.98
2023-07-11T07:28:45.849Z,69.25
2023-07-11T07:31:13.022Z,68.55
2023-07-11T07:33:41.800Z,68.65
2023-07-11T07:36:12.670Z,68.93
2023-07-11T07:38:40.673Z,70.32
2023-07-11T07:41:11.362Z,70.36
2023-07-11T07:43:44.222Z,69.16
2023-07-11T07:46:18.927Z,68.11
2023-07-11T07:48:46.290Z,68.82
2023-07-11T07:51:17.660Z,69.10
2023-07-11T07:53:45.779Z,67.86
2023-07-11T07:56:21.029Z,68.66
2023-07-11T07:58:49.652Z,66.75
2023-07-11T08:01:19.591Z,66.74
2023-07-11T08:03:47.047Z,65.71
2023-07-11T08:06:17.675Z,64.44
2023-07-11T08:08:47.130Z,64.00
2023-07-11T08:11:15.711Z,65.40
2023-07-11T08:16:28.645Z,64.97
2023-07-11T08:18:58.448Z,64.61
2023-07-11T08:21:26.746Z,64.74
2023-07-11T08:23:54.023Z,62.98
2023-07-11T08:26:23.583Z,63.48
2023-07-11T08:28:52.294Z,64.48
2023-07-11T08:31:19.771Z,63.82
2023-07-11T08:33:47.054Z,64.22
2023-07-11T08:36:14.460Z,64.00
2023-07-11T08:38:41.560Z,63.27
2023-07-11T08:41:27.246Z,62.56
2023-07-11T08:44:02.000Z,62.77
2023-07-11T08:46:32.691Z,62.83
2023-07-11T08:49:02.342Z,62.07
2023-07-11T08:51:39.989Z,61.62
2023-07-11T08:54:33.188Z,61.71
2023-07-11T08:57:01.003Z,61.55
2023-07-11T08:59:52.221Z,61.75
2023-07-11T09:03:01.529Z,60.63
2023-07-11T09:06:02.841Z,59.75
2023-07-11T09:08:31.597Z,59.10
2023-07-11T09:11:18.704Z,57.83
2023-07-11T09:14:24.844Z,56.99
2023-07-11T09:17:12.627Z,55.94
2023-07-11T09:20:37.207Z,53.47
2023-07-11T09:23:48.248Z,52.26
2023-07-11T09:26:28.755Z,50.66
2023-07-11T09:29:06.859Z,49.96
2023-07-11T09:31:52.022Z,49.43
2023-07-11T09:34:34.604Z,49.39
2023-07-11T09:37:23.962Z,48.99
2023-07-11T09:40:02.733Z,48.44
2023-07-11T09:42:48.557Z,46.36
2023-07-11T09:45:19.194Z,44.72
2023-07-11T09:47:56.186Z,43.52
2023-07-11T09:51:06.829Z,42.81
2023-07-11T09:53:44.891Z,41.12
2023-07-11T09:56:17.431Z,42.59
2023-07-11T09:58:54.502Z,41.59
2023-07-11T10:01:33.685Z,41.44
2023-07-11T10:04:02.659Z,41.97
2023-07-11T10:09:32.837Z,40.57
2023-07-11T10:12:05.792Z,39.98
2023-07-11T10:14:42.242Z,39.66
2023-07-11T10:17:26.924Z,39.50
2023-07-11T10:20:08.123Z,38.57
2023-07-11T10:22:50.151Z,38.65
2023-07-11T10:25:28.946Z,39.08
2023-07-11T10:28:33.445Z,37.37
2023-07-11T10:31:21.425Z,38.17
2023-07-11T10:34:01.116Z,37.90
2023-07-11T10:36:47.073Z,36.99
2023-07-11T10:39:20.453Z,35.98
2023-07-11T10:42:00.627Z,34.84
2023-07-11T10:44:36.725Z,33.88
2023-07-11T10:47:06.182Z,34.39
2023-07-11T10:49:52.719Z,34.86
2023-07-11T10:52:28.241Z,34.88
2023-07-11T10:55:19.050Z,34.96
2023-07-11T10:57:53.140Z,35.08
2023-07-11T11:00:43.930Z,34.70
2023-07-11T11:03:31.235Z,34.72
2023-07-11T11:06:38.346Z,34.60
2023-07-11T11:09:22.793Z,35.37
2023-07-11T11:12:43.950Z,34.46
2023-07-11T11:15:37.640Z,34.56
2023-07-11T11:18:10.344Z,33.93
2023-07-11T11:21:19.739Z,33.32
2023-07-11T11:24:09.795Z,34.42
2023-07-11T11:26:55.867Z,35.22
2023-07-11T11:30:04.853Z,35.35
2023-07-11T11:32:55.492Z,35.64
2023-07-11T11:35:42.760Z,35.29
2023-07-11T11:38:46.190Z,35.86
2023-07-11T11:41:18.632Z,36.47
2023-07-11T11:51:29.157Z,38.84
2023-07-11T11:54:16.571Z,39.61
2023-07-11T11:56:49.259Z,39.40
2023-07-11T11:59:24.047Z,39.17
2023-07-11T12:02:38.270Z,38.78
2023-07-11T12:05:08.102Z,39.87
2023-07-11T12:07:42.218Z,39.60
2023-07-11T12:10:25.069Z,40.90
2023-07-11T12:13:26.955Z,40.35
2023-07-11T12:15:56.742Z,40.81
2023-07-11T12:18:38.210Z,39.81
2023-07-11T12:21:20.416Z,40.38
2023-07-11T12:26:26.847Z,39.94
2023-07-11T12:28:55.348Z,39.19
2023-07-11T12:31:26.742Z,39.61
2023-07-11T12:34:04.621Z,39.63
2023-07-11T12:36:45.111Z,40.41
2023-07-11T12:39:27.148Z,40.50
2023-07-11T12:41:55.963Z,41.08
2023-07-11T12:44:23.267Z,41.73
2023-07-11T12:46:53.220Z,41.15
2023-07-11T12:49:30.249Z,41.06
2023-07-11T12:52:18.304Z,41.50
2023-07-11T12:54:46.018Z,41.76
2023-07-11T12:57:26.964Z,40.48
2023-07-11T12:59:54.058Z,40.69
2023-07-11T13:02:29.035Z,40.08
2023-07-11T13:04:59.777Z,40.23
2023-07-11T13:07:32.303Z,40.39
2023-07-11T13:10:02.332Z,40.17
2023-07-11T13:12:38.918Z,39.80
2023-07-11T13:15:22.195Z,40.72
2023-07-11T13:17:53.966Z,41.08
2023-07-11T13:20:28.928Z,42.06
2023-07-11T13:22:56.531Z,41.57
2023-07-11T13:25:35.305Z,41.04
2023-07-11T13:28:03.491Z,40.73
2023-07-11T13:30:38.438Z,41.46
2023-07-11T13:36:34.775Z,41.98
2023-07-11T13:39:11.862Z,41.23
2023-07-11T13:41:41.789Z,40.89
2023-07-11T13:44:41.606Z,41.21
2023-07-11T13:47:41.652Z,41.13
2023-07-11T13:50:22.222Z,41.56
2023-07-11T13:53:01.704Z,41.65
2023-07-11T13:55:39.767Z,42.96
2023-07-11T13:58:11.012Z,42.55
2023-07-11T14:00:44.950Z,42.92
2023-07-11T14:03:24.831Z,42.67
2023-07-11T14:05:59.104Z,43.09
2023-07-11T14:08:27.356Z,43.55
2023-07-11T14:10:54.628Z,43.86
2023-07-11T14:13:28.182Z,43.89
2023-07-11T14:16:00.247Z,43.11
2023-07-11T14:18:27.449Z,42.75
2023-07-11T14:20:55.292Z,41.95
2023-07-11T14:23:28.703Z,41.83
2023-07-11T14:25:56.867Z,41.90
2023-07-11T14:28:24.505Z,40.18
2023-07-11T14:30:56.058Z,39.81
2023-07-11T14:33:25.069Z,40.25
2023-07-11T14:35:52.367Z,40.14
2023-07-11T14:38:21.423Z,39.51
2023-07-11T14:40:49.726Z,39.83
2023-07-11T14:43:25.031Z,39.94
2023-07-11T14:45:52.180Z,39.52
2023-07-11T14:48:26.885Z,38.93
2023-07-11T14:51:06.611Z,38.67
2023-07-11T14:53:44.131Z,39.21
2023-07-11T14:58:57.601Z,38.58
2023-07-11T15:01:25.628Z,38.68
2023-07-11T15:11:39.342Z,38.09
2023-07-11T15:16:48.491Z,37.22
2023-07-11T15:19:24.536Z,37.74
2023-07-11T15:22:06.005Z,38.27
2023-07-11T15:24:41.524Z,38.43
2023-07-11T15:27:16.953Z,38.27
2023-07-11T15:29:44.383Z,38.87
2023-07-11T15:32:23.941Z,38.33
2023-07-11T15:34:51.326Z,38.61
2023-07-11T15:37:18.582Z,38.58
2023-07-11T15:39:45.845Z,37.41
2023-07-11T15:42:24.375Z,37.23
2023-07-11T15:44:55.561Z,37.49
2023-07-11T15:47:23.489Z,37.24
2023-07-11T15:49:50.827Z,37.47
2023-07-11T15:52:21.125Z,37.58
2023-07-11T15:54:48.622Z,37.39
2023-07-11T15:57:24.841Z,37.33
2023-07-11T15:59:52.268Z,37.65
2023-07-11T16:02:23.665Z,38.59
2023-07-11T16:04:51.197Z,38.07
2023-07-11T16:07:21.093Z,38.60
2023-07-11T16:09:48.836Z,38.63
2023-07-11T16:12:17.739Z,38.63
2023-07-11T16:14:45.852Z,38.84
2023-07-11T16:17:20.778Z,39.01
2023-07-11T16:19:51.192Z,38.74
2023-07-11T16:22:22.735Z,38.71
2023-07-11T16:24:50.974Z,39.14
2023-07-11T16:27:18.793Z,38.86
2023-07-11T16:29:48.420Z,39.37
2023-07-11T16:32:16.655Z,39.75
2023-07-11T16:34:45.302Z,39.97
2023-07-11T16:37:20.515Z,39.96
2023-07-11T16:39:49.514Z,40.03
2023-07-11T16:42:23.232Z,39.79
2023-07-11T16:44:50.663Z,39.87
2023-07-11T16:47:18.484Z,39.82
2023-07-11T16:49:50.606Z,39.23
2023-07-11T16:52:18.331Z,38.47
2023-07-11T16:54:49.015Z,39.40
2023-07-11T16:57:20.994Z,39.49
2023-07-11T16:59:48.467Z,39.61
2023-07-11T17:02:23.258Z,38.93
2023-07-11T17:04:52.942Z,38.95
2023-07-11T17:07:22.777Z,39.15
2023-07-11T17:09:49.834Z,38.88
2023-07-11T17:12:18.214Z,39.19
2023-07-11T17:14:45.347Z,39.15
2023-07-11T17:17:26.027Z,39.38
2023-07-11T17:19:56.632Z,38.36
2023-07-11T17:22:24.431Z,38.81
2023-07-11T17:24:51.644Z,38.74
2023-07-11T17:27:31.537Z,39.34
2023-07-11T17:29:58.741Z,39.46
2023-07-11T17:32:29.514Z,38.80
2023-07-11T17:34:56.829Z,39.10
2023-07-11T17:37:32.129Z,39.47
2023-07-11T17:39:59.923Z,39.14
2023-07-11T17:42:28.810Z,40.09
2023-07-11T17:44:59.139Z,40.38
2023-07-11T17:47:38.057Z,40.92
2023-07-11T17:50:27.066Z,40.09
2023-07-11T17:52:54.601Z,40.24
2023-07-11T17:55:21.616Z,40.56
2023-07-11T17:57:48.670Z,41.33
2023-07-11T18:00:22.542Z,42.58
2023-07-11T18:03:00.380Z,42.45
2023-07-11T18:05:29.575Z,42.48
2023-07-11T18:07:56.710Z,43.31
2023-07-11T18:10:30.765Z,43.75
2023-07-11T18:13:09.520Z,42.64
2023-07-11T18:15:41.102Z,43.05
2023-07-11T18:18:29.456Z,43.22
2023-07-11T18:20:59.622Z,42.90
2023-07-11T18:23:27.475Z,42.70
2023-07-11T18:25:55.722Z,42.60
2023-07-11T18:28:24.100Z,42.58
2023-07-11T18:30:52.517Z,44.02
2023-07-11T18:33:22.123Z,44.27
2023-07-11T18:35:50.401Z,45.37
2023-07-11T18:38:23.195Z,45.73
2023-07-11T18:40:50.846Z,44.84
2023-07-11T18:43:18.292Z,45.58
2023-07-11T18:45:48.742Z,45.90
2023-07-11T18:48:16.090Z,47.10
2023-07-11T18:50:44.021Z,47.60
2023-07-11T18:53:11.526Z,47.76
2023-07-11T18:55:43.578Z,48.21
2023-07-11T18:58:11.437Z,48.90
2023-07-11T19:00:48.720Z,48.98
2023-07-11T19:03:18.585Z,49.36
2023-07-11T19:05:47.162Z,50.02
2023-07-11T19:08:23.371Z,50.02
2023-07-11T19:10:51.330Z,49.82
2023-07-11T19:13:18.902Z,48.68
2023-07-11T19:15:50.100Z,48.29
2023-07-11T19:18:23.502Z,49.82
2023-07-11T19:20:51.442Z,50.35
2023-07-11T19:23:26.986Z,52.22
2023-07-11T19:25:55.806Z,49.43
2023-07-11T19:28:30.949Z,50.05
2023-07-11T19:31:02.671Z,51.93
2023-07-11T19:33:30.055Z,53.19
2023-07-11T19:36:00.191Z,53.42
2023-07-11T19:38:30.877Z,53.40
2023-07-11T19:40:58.508Z,53.80
2023-07-11T19:43:25.590Z,53.87
2023-07-11T19:45:56.431Z,54.08
2023-07-11T19:48:29.172Z,54.26
2023-07-11T19:51:01.233Z,54.40
2023-07-11T19:53:32.809Z,54.36
2023-07-11T19:56:02.567Z,54.13
2023-07-11T19:58:31.853Z,54.35
2023-07-11T20:01:02.132Z,54.58
2023-07-11T20:03:31.396Z,53.71
2023-07-11T20:06:01.718Z,53.42
2023-07-11T20:08:33.458Z,54.09
2023-07-11T20:11:03.934Z,54.17
2023-07-11T20:13:32.297Z,54.85
2023-07-11T20:16:12.917Z,55.08
2023-07-11T20:18:40.206Z,55.93
2023-07-11T20:21:15.445Z,56.88
2023-07-11T20:23:44.350Z,57.33
2023-07-11T20:26:31.911Z,57.96
2023-07-11T20:28:59.055Z,58.45
2023-07-11T20:31:28.438Z,59.69
2023-07-11T20:33:55.801Z,59.65
2023-07-11T20:36:36.215Z,59.54
2023-07-11T20:39:04.475Z,59.91
2023-07-11T20:41:31.588Z,60.43
2023-07-11T20:44:01.190Z,60.32
2023-07-11T20:46:29.680Z,61.34
2023-07-11T20:49:00.945Z,61.69
2023-07-11T20:51:29.108Z,61.98
2023-07-11T20:53:56.992Z,62.98
2023-07-11T20:56:24.165Z,62.83
2023-07-11T20:58:56.127Z,62.88
2023-07-11T21:01:24.778Z,62.82
2023-07-11T21:03:52.444Z,62.87
2023-07-11T21:06:23.648Z,62.78
2023-07-11T21:08:50.679Z,62.66
2023-07-11T21:11:17.711Z,63.36
2023-07-11T21:13:44.894Z,63.41
2023-07-11T21:16:12.951Z,63.34
2023-07-11T21:18:40.337Z,63.60
2023-07-11T21:21:10.725Z,63.99
2023-07-11T21:23:38.022Z,63.71
2023-07-11T21:26:17.460Z,64.89
2023-07-11T21:28:46.631Z,65.43
2023-07-11T21:31:18.095Z,65.58
2023-07-11T21:33:47.032Z,66.41
2023-07-11T21:36:21.669Z,66.75
2023-07-11T21:38:50.700Z,66.88
2023-07-11T21:41:21.242Z,66.25
2023-07-11T21:43:48.643Z,66.44
2023-07-11T21:46:32.392Z,66.79
2023-07-11T21:49:00.474Z,67.92
2023-07-11T21:51:29.313Z,68.45
2023-07-11T21:53:56.469Z,68.07
2023-07-11T21:56:27.433Z,67.88
2023-07-11T21:58:58.752Z,68.24
2023-07-11T22:01:27.049Z,68.71
2023-07-11T22:03:54.185Z,69.16
2023-07-11T22:06:27.148Z,69.52
2023-07-11T22:08:56.104Z,69.68
2023-07-11T22:11:24.101Z,70.02
2023-07-11T22:13:51.267Z,70.54
2023-07-11T22:16:23.137Z,70.78
2023-07-11T22:18:51.189Z,71.00
2023-07-11T22:21:25.335Z,71.17
2023-07-11T22:23:53.581Z,71.28
2023-07-11T22:26:26.176Z,71.53
2023-07-11T22:28:55.077Z,69.41
2023-07-11T22:31:22.643Z,69.87
2023-07-11T22:33:50.167Z,69.33
2023-07-11T22:36:17.301Z,70.13
2023-07-11T22:38:44.994Z,71.03
2023-07-11T22:41:12.762Z,72.42
2023-07-11T22:43:39.942Z,72.35
2023-07-11T22:46:25.327Z,72.04
2023-07-11T22:48:52.573Z,72.63
2023-07-11T22:51:19.984Z,70.53
2023-07-11T22:53:48.116Z,71.78
2023-07-11T22:56:24.636Z,70.45
2023-07-11T22:58:53.409Z,71.74
2023-07-11T23:01:22.483Z,68.61
2023-07-11T23:03:49.908Z,70.13
2023-07-11T23:06:21.940Z,72.34
2023-07-11T23:08:50.027Z,73.39
2023-07-11T23:11:17.637Z,74.14
2023-07-11T23:13:46.836Z,74.27
2023-07-11T23:16:28.805Z,73.99
2023-07-11T23:19:05.279Z,73.30
2023-07-11T23:21:34.115Z,75.12
2023-07-11T23:24:01.821Z,75.38
2023-07-11T23:26:30.114Z,76.16
2023-07-11T23:28:57.383Z,76.29
2023-07-11T23:31:25.007Z,76.58
2023-07-11T23:33:52.453Z,77.37
2023-07-11T23:36:23.132Z,77.43
2023-07-11T23:38:53.427Z,77.98
2023-07-11T23:41:21.302Z,77.51
2023-07-11T23:43:48.996Z,77.85
2023-07-11T23:46:29.277Z,78.04
2023-07-11T23:48:57.814Z,78.53
2023-07-11T23:51:28.921Z,79.10
2023-07-11T23:53:56.391Z,79.46
2023-07-11T23:56:30.869Z,79.37
2023-07-11T23:58:59.069Z,79.21
